createdAt,value
2023-12-15T00:00:02.952Z,7.37
2023-12-15T00:01:02.993Z,7.49
2023-12-15T00:02:03.050Z,7.44
2023-12-15T00:03:03.088Z,7.45
2023-12-15T00:04:02.984Z,7.49
2023-12-15T00:05:02.983Z,7.52
2023-12-15T00:06:02.936Z,7.45
2023-12-15T00:07:02.917Z,7.40
2023-12-15T00:08:02.997Z,7.44
2023-12-15T00:09:02.938Z,7.29
2023-12-15T00:10:02.913Z,7.41
2023-12-15T00:11:03.765Z,7.38
2023-12-15T00:12:02.874Z,7.24
2023-12-15T00:13:02.854Z,7.17
2023-12-15T00:14:02.912Z,7.13
2023-12-15T00:15:02.878Z,7.02
2023-12-15T00:16:02.842Z,7.02
2023-12-15T00:17:03.816Z,7.12
2023-12-15T00:18:03.092Z,6.90
2023-12-15T00:19:02.888Z,6.76
2023-12-15T00:20:03.018Z,6.91
2023-12-15T00:21:02.808Z,6.54
2023-12-15T00:22:02.829Z,6.43
2023-12-15T00:23:02.843Z,6.46
2023-12-15T00:24:02.821Z,6.66
2023-12-15T00:25:02.790Z,6.65
2023-12-15T00:26:02.801Z,6.84
2023-12-15T00:27:02.759Z,6.98
2023-12-15T00:28:02.820Z,6.94
2023-12-15T00:29:02.782Z,6.97
2023-12-15T00:30:02.751Z,7.04
2023-12-15T00:31:02.802Z,7.08
2023-12-15T00:32:02.759Z,7.23
2023-12-15T00:33:02.794Z,7.17
2023-12-15T00:34:02.988Z,7.09
2023-12-15T00:35:02.733Z,7.16
2023-12-15T00:36:02.718Z,7.22
2023-12-15T00:37:02.691Z,7.31
2023-12-15T00:38:02.799Z,7.23
2023-12-15T00:39:02.724Z,7.19
2023-12-15T00:40:02.717Z,7.23
2023-12-15T00:41:02.715Z,7.20
2023-12-15T00:42:02.674Z,7.26
2023-12-15T00:43:02.661Z,7.20
2023-12-15T00:44:02.758Z,7.15
2023-12-15T00:45:02.649Z,7.08
2023-12-15T00:46:02.653Z,6.98
2023-12-15T00:47:02.830Z,6.95
2023-12-15T00:48:02.671Z,6.97
2023-12-15T00:49:02.868Z,7.07
2023-12-15T00:50:02.940Z,7.08
2023-12-15T00:51:02.638Z,7.22
2023-12-15T00:52:02.626Z,7.13
2023-12-15T00:53:02.678Z,7.24
2023-12-15T00:54:02.622Z,7.42
2023-12-15T00:55:02.733Z,7.42
2023-12-15T00:56:02.649Z,7.52
2023-12-15T00:57:02.591Z,7.44
2023-12-15T00:58:03.070Z,7.32
2023-12-15T00:59:02.644Z,7.45
2023-12-15T01:00:02.608Z,7.44
2023-12-15T01:01:02.584Z,7.52
2023-12-15T01:02:02.624Z,7.47
2023-12-15T01:03:02.581Z,7.31
2023-12-15T01:04:02.525Z,7.38
2023-12-15T01:05:02.719Z,7.29
2023-12-15T01:06:02.751Z,7.40
2023-12-15T01:07:02.528Z,7.41
2023-12-15T01:08:02.612Z,7.40
2023-12-15T01:09:02.504Z,7.52
2023-12-15T01:10:02.502Z,7.37
2023-12-15T01:11:02.532Z,7.55
2023-12-15T01:12:02.476Z,7.58
2023-12-15T01:13:02.524Z,7.58
2023-12-15T01:14:03.699Z,7.60
2023-12-15T01:15:02.704Z,7.69
2023-12-15T01:16:02.481Z,7.77
2023-12-15T01:17:02.506Z,7.47
2023-12-15T01:18:02.612Z,7.55
2023-12-15T01:19:02.516Z,7.38
2023-12-15T01:20:02.611Z,7.44
2023-12-15T01:21:02.475Z,7.58
2023-12-15T01:22:02.418Z,7.75
2023-12-15T01:23:02.466Z,7.63
2023-12-15T01:24:02.411Z,7.69
2023-12-15T01:25:03.418Z,7.71
2023-12-15T01:26:02.425Z,7.77
2023-12-15T01:27:02.418Z,7.72
2023-12-15T01:28:02.460Z,7.60
2023-12-15T01:29:02.431Z,7.69
2023-12-15T01:30:02.403Z,7.59
2023-12-15T01:31:03.138Z,7.41
2023-12-15T01:32:02.492Z,7.38
2023-12-15T01:33:02.416Z,7.41
2023-12-15T01:34:02.453Z,7.49
2023-12-15T01:35:02.433Z,7.47
2023-12-15T01:36:02.324Z,7.38
2023-12-15T01:37:02.326Z,7.34
2023-12-15T01:38:02.602Z,7.31
2023-12-15T01:39:02.345Z,6.90
2023-12-15T01:40:02.344Z,6.81
2023-12-15T01:41:02.330Z,6.73
2023-12-15T01:42:02.327Z,6.72
2023-12-15T01:43:02.306Z,6.73
2023-12-15T01:44:02.438Z,6.68
2023-12-15T01:45:02.278Z,6.69
2023-12-15T01:46:08.770Z,6.79
2023-12-15T01:47:03.342Z,6.66
2023-12-15T01:48:02.450Z,6.66
2023-12-15T01:49:02.356Z,6.81
2023-12-15T01:50:02.344Z,6.95
2023-12-15T01:51:02.239Z,7.02
2023-12-15T01:52:02.254Z,7.13
2023-12-15T01:53:02.297Z,7.01
2023-12-15T01:54:02.238Z,6.98
2023-12-15T01:55:02.216Z,7.12
2023-12-15T01:56:02.256Z,7.09
2023-12-15T01:57:02.203Z,7.15
2023-12-15T01:58:02.274Z,7.12
2023-12-15T01:59:02.284Z,7.12
2023-12-15T02:00:02.252Z,7.19
2023-12-15T02:01:02.257Z,7.19
2023-12-15T02:02:02.194Z,7.20
2023-12-15T02:03:02.164Z,7.24
2023-12-15T02:04:02.237Z,7.23
2023-12-15T02:05:02.238Z,7.31
2023-12-15T02:06:02.235Z,7.40
2023-12-15T02:07:02.148Z,7.40
2023-12-15T02:08:02.163Z,7.38
2023-12-15T02:09:02.149Z,7.60
2023-12-15T02:10:02.130Z,7.52
2023-12-15T02:11:02.153Z,7.49
2023-12-15T02:12:02.114Z,7.44
2023-12-15T02:13:02.128Z,7.37
2023-12-15T02:14:02.116Z,7.56
2023-12-15T02:15:02.114Z,7.59
2023-12-15T02:16:02.086Z,7.75
2023-12-15T02:17:02.100Z,7.77
2023-12-15T02:18:02.253Z,7.79
2023-12-15T02:19:02.158Z,7.89
2023-12-15T02:20:02.268Z,7.81
2023-12-15T02:21:03.072Z,7.87
2023-12-15T02:22:02.048Z,7.72
2023-12-15T02:23:02.087Z,7.72
2023-12-15T02:24:02.039Z,7.79
2023-12-15T02:25:02.073Z,7.71
2023-12-15T02:26:02.055Z,7.55
2023-12-15T02:27:03.711Z,7.53
2023-12-15T02:28:02.021Z,7.42
2023-12-15T02:29:02.014Z,7.26
2023-12-15T02:30:02.013Z,7.38
2023-12-15T02:31:02.020Z,7.41
2023-12-15T02:32:02.105Z,7.27
2023-12-15T02:33:02.137Z,7.17
2023-12-15T02:34:02.033Z,7.12
2023-12-15T02:35:02.038Z,7.08
2023-12-15T02:36:01.985Z,7.26
2023-12-15T02:37:01.960Z,7.15
2023-12-15T02:38:02.015Z,7.27
2023-12-15T02:39:01.954Z,7.19
2023-12-15T02:40:01.944Z,7.19
2023-12-15T02:41:01.966Z,7.31
2023-12-15T02:42:01.941Z,7.24
2023-12-15T02:43:01.937Z,7.41
2023-12-15T02:44:01.920Z,7.29
2023-12-15T02:45:01.926Z,7.22
2023-12-15T02:46:01.905Z,7.12
2023-12-15T02:47:02.019Z,6.91
2023-12-15T02:48:02.134Z,7.08
2023-12-15T02:49:01.998Z,7.08
2023-12-15T02:50:01.924Z,7.23
2023-12-15T02:51:01.894Z,7.13
2023-12-15T02:52:01.876Z,6.99
2023-12-15T02:53:02.058Z,7.02
2023-12-15T02:54:01.894Z,6.91
2023-12-15T02:55:01.853Z,6.94
2023-12-15T02:56:02.781Z,6.98
2023-12-15T02:57:01.849Z,7.13
2023-12-15T02:58:01.891Z,6.95
2023-12-15T02:59:01.847Z,6.95
2023-12-15T03:00:01.833Z,7.05
2023-12-15T03:01:01.886Z,7.16
2023-12-15T03:02:01.968Z,7.12
2023-12-15T03:03:01.839Z,7.22
2023-12-15T03:04:01.790Z,7.23
2023-12-15T03:05:01.811Z,7.40
2023-12-15T03:06:02.864Z,7.41
2023-12-15T03:07:02.731Z,7.22
2023-12-15T03:08:01.835Z,7.42
2023-12-15T03:09:01.779Z,7.59
2023-12-15T03:10:01.763Z,7.53
2023-12-15T03:11:01.782Z,7.60
2023-12-15T03:12:01.777Z,7.59
2023-12-15T03:13:01.743Z,7.72
2023-12-15T03:14:01.764Z,7.71
2023-12-15T03:15:01.735Z,7.67
2023-12-15T03:16:01.723Z,7.74
2023-12-15T03:17:01.930Z,7.84
2023-12-15T03:18:35.205Z,7.97
2023-12-15T03:19:01.741Z,7.85
2023-12-15T03:20:35.185Z,8.02
2023-12-15T03:21:01.694Z,7.92
2023-12-15T03:22:01.685Z,7.92
2023-12-15T03:23:01.737Z,7.92
2023-12-15T03:24:01.691Z,7.74
2023-12-15T03:25:01.666Z,7.47
2023-12-15T03:26:01.715Z,7.40
2023-12-15T03:27:35.183Z,7.45
2023-12-15T03:28:35.114Z,7.42
2023-12-15T03:29:01.694Z,7.52
2023-12-15T03:30:01.636Z,7.63
2023-12-15T03:31:01.651Z,7.59
2023-12-15T03:32:01.675Z,7.78
2023-12-15T03:33:01.702Z,7.77
2023-12-15T03:34:01.685Z,7.75
2023-12-15T03:35:02.318Z,7.79
2023-12-15T03:36:01.614Z,7.77
2023-12-15T03:37:01.617Z,7.82
2023-12-15T03:38:01.619Z,7.79
2023-12-15T03:39:01.611Z,7.81
2023-12-15T03:40:01.591Z,7.75
2023-12-15T03:41:01.586Z,7.92
2023-12-15T03:42:01.557Z,7.71
2023-12-15T03:43:01.564Z,7.50
2023-12-15T03:44:01.677Z,7.38
2023-12-15T03:45:01.573Z,7.23
2023-12-15T03:46:01.534Z,7.38
2023-12-15T03:47:01.569Z,7.29
2023-12-15T03:48:01.640Z,7.56
2023-12-15T03:49:01.557Z,7.74
2023-12-15T03:50:01.607Z,7.82
2023-12-15T03:51:01.687Z,7.79
2023-12-15T03:52:01.536Z,7.79
2023-12-15T03:53:01.590Z,7.92
2023-12-15T03:54:01.517Z,7.89
2023-12-15T03:55:01.502Z,7.87
2023-12-15T03:56:01.535Z,7.99
2023-12-15T03:57:01.487Z,7.84
2023-12-15T03:58:01.473Z,8.00
2023-12-15T03:59:01.484Z,7.85
2023-12-15T04:00:01.503Z,7.78
2023-12-15T04:01:01.514Z,7.75
2023-12-15T04:02:01.491Z,7.72
2023-12-15T04:03:01.462Z,7.69
2023-12-15T04:04:01.431Z,7.72
2023-12-15T04:05:01.503Z,7.78
2023-12-15T04:06:01.487Z,7.84
2023-12-15T04:07:01.413Z,8.08
2023-12-15T04:08:01.474Z,8.04
2023-12-15T04:09:01.410Z,8.04
2023-12-15T04:10:01.416Z,8.02
2023-12-15T04:11:01.478Z,8.00
2023-12-15T04:12:01.392Z,7.96
2023-12-15T04:13:01.373Z,7.93
2023-12-15T04:14:01.415Z,7.87
2023-12-15T04:15:01.376Z,8.04
2023-12-15T04:16:01.390Z,8.02
2023-12-15T04:17:01.389Z,7.94
2023-12-15T04:18:01.693Z,7.90
2023-12-15T04:19:01.457Z,7.97
2023-12-15T04:20:01.594Z,8.08
2023-12-15T04:21:01.341Z,8.00
2023-12-15T04:22:01.325Z,7.79
2023-12-15T04:23:01.346Z,7.81
2023-12-15T04:24:01.326Z,7.82
2023-12-15T04:25:01.332Z,7.79
2023-12-15T04:26:01.447Z,7.85
2023-12-15T04:27:01.346Z,7.77
2023-12-15T04:28:01.286Z,7.69
2023-12-15T04:29:01.324Z,7.74
2023-12-15T04:30:01.279Z,7.69
2023-12-15T04:31:01.280Z,7.79
2023-12-15T04:32:01.306Z,7.82
2023-12-15T04:33:01.328Z,7.71
2023-12-15T04:34:01.306Z,7.74
2023-12-15T04:35:01.336Z,7.74
2023-12-15T04:36:01.250Z,7.81
2023-12-15T04:37:01.243Z,7.75
2023-12-15T04:38:01.270Z,7.60
2023-12-15T04:39:01.262Z,7.71
2023-12-15T04:40:01.216Z,7.90
2023-12-15T04:41:01.236Z,7.84
2023-12-15T04:42:01.314Z,7.77
2023-12-15T04:43:01.207Z,7.81
2023-12-15T04:44:01.237Z,7.79
2023-12-15T04:45:01.188Z,7.85
2023-12-15T04:46:01.181Z,7.81
2023-12-15T04:47:01.197Z,7.96
2023-12-15T04:48:01.405Z,7.72
2023-12-15T04:49:01.302Z,7.66
2023-12-15T04:50:01.230Z,7.59
2023-12-15T04:51:01.153Z,7.63
2023-12-15T04:52:01.200Z,7.63
2023-12-15T04:53:01.266Z,7.63
2023-12-15T04:54:01.157Z,7.66
2023-12-15T04:55:01.140Z,7.60
2023-12-15T04:56:01.155Z,7.77
2023-12-15T04:57:01.153Z,7.69
2023-12-15T04:58:01.117Z,7.84
2023-12-15T04:59:01.126Z,7.74
2023-12-15T05:00:01.161Z,7.74
2023-12-15T05:01:01.095Z,7.63
2023-12-15T05:02:01.116Z,7.60
2023-12-15T05:03:01.105Z,7.42
2023-12-15T05:04:02.069Z,7.66
2023-12-15T05:05:01.107Z,7.55
2023-12-15T05:06:01.115Z,7.44
2023-12-15T05:07:01.042Z,7.67
2023-12-15T05:08:01.088Z,7.62
2023-12-15T05:09:01.058Z,7.71
2023-12-15T05:10:01.091Z,7.81
2023-12-15T05:11:01.052Z,7.72
2023-12-15T05:12:01.019Z,7.69
2023-12-15T05:13:01.033Z,7.66
2023-12-15T05:14:01.373Z,7.58
2023-12-15T05:15:01.000Z,7.55
2023-12-15T05:16:00.985Z,7.38
2023-12-15T05:17:02.868Z,7.40
2023-12-15T05:18:01.226Z,7.22
2023-12-15T05:19:01.274Z,7.31
2023-12-15T05:20:01.016Z,7.34
2023-12-15T05:21:01.769Z,7.49
2023-12-15T05:22:01.017Z,7.42
2023-12-15T05:23:01.004Z,7.38
2023-12-15T05:24:00.987Z,7.35
2023-12-15T05:25:00.934Z,7.29
2023-12-15T05:26:00.996Z,7.45
2023-12-15T05:27:00.960Z,7.41
2023-12-15T05:28:00.922Z,7.44
2023-12-15T05:29:00.971Z,7.47
2023-12-15T05:30:00.904Z,7.40
2023-12-15T05:31:00.945Z,7.50
2023-12-15T05:32:00.937Z,7.56
2023-12-15T05:33:02.925Z,7.60
2023-12-15T05:34:00.960Z,7.69
2023-12-15T05:35:04.223Z,7.74
2023-12-15T05:36:01.880Z,7.79
2023-12-15T05:37:00.864Z,7.85
2023-12-15T05:38:00.886Z,7.89
2023-12-15T05:39:00.869Z,7.97
2023-12-15T05:40:00.855Z,7.92
2023-12-15T05:41:00.891Z,7.92
2023-12-15T05:42:00.932Z,8.00
2023-12-15T05:43:00.882Z,8.00
2023-12-15T05:44:00.849Z,7.87
2023-12-15T05:45:00.840Z,7.82
2023-12-15T05:46:00.816Z,7.90
2023-12-15T05:47:00.961Z,7.75
2023-12-15T05:48:00.918Z,7.60
2023-12-15T05:49:00.981Z,7.50
2023-12-15T05:50:01.028Z,7.50
2023-12-15T05:51:00.860Z,7.59
2023-12-15T05:52:00.845Z,7.72
2023-12-15T05:53:00.852Z,7.72
2023-12-15T05:54:00.820Z,7.75
2023-12-15T05:55:00.747Z,7.87
2023-12-15T05:56:00.800Z,7.82
2023-12-15T05:57:00.760Z,7.85
2023-12-15T05:58:00.759Z,7.81
2023-12-15T05:59:00.787Z,7.02
2023-12-15T06:00:00.781Z,7.08
2023-12-15T06:01:00.770Z,7.22
2023-12-15T06:02:00.826Z,7.49
2023-12-15T06:03:00.830Z,7.29
2023-12-15T06:04:00.711Z,7.24
2023-12-15T06:05:01.518Z,7.38
2023-12-15T06:06:00.731Z,7.38
2023-12-15T06:07:00.682Z,7.53
2023-12-15T06:08:00.791Z,7.53
2023-12-15T06:09:00.703Z,7.53
2023-12-15T06:10:00.649Z,7.60
2023-12-15T06:11:00.717Z,7.78
2023-12-15T06:12:00.634Z,7.89
2023-12-15T06:13:00.643Z,7.74
2023-12-15T06:14:00.682Z,7.82
2023-12-15T06:15:00.642Z,7.89
2023-12-15T06:16:00.622Z,7.42
2023-12-15T06:17:00.618Z,7.53
2023-12-15T06:18:00.766Z,7.45
2023-12-15T06:19:00.714Z,7.42
2023-12-15T06:20:00.702Z,7.52
2023-12-15T06:21:00.584Z,7.72
2023-12-15T06:22:00.582Z,7.85
2023-12-15T06:23:00.635Z,7.79
2023-12-15T06:24:00.600Z,7.72
2023-12-15T06:25:00.564Z,7.41
2023-12-15T06:26:00.653Z,7.35
2023-12-15T06:27:00.558Z,7.42
2023-12-15T06:28:00.558Z,7.45
2023-12-15T06:29:00.586Z,7.50
2023-12-15T06:30:00.541Z,7.67
2023-12-15T06:31:00.609Z,7.87
2023-12-15T06:32:00.585Z,7.90
2023-12-15T06:33:00.554Z,7.99
2023-12-15T06:34:00.586Z,8.14
2023-12-15T06:35:00.551Z,8.11
2023-12-15T06:36:00.557Z,8.03
2023-12-15T06:37:00.565Z,8.15
2023-12-15T06:38:00.542Z,8.18
2023-12-15T06:39:00.522Z,7.77
2023-12-15T06:40:00.545Z,7.74
2023-12-15T06:41:00.489Z,7.67
2023-12-15T06:42:00.484Z,7.66
2023-12-15T06:43:00.448Z,7.60
2023-12-15T06:44:00.492Z,7.66
2023-12-15T06:45:00.483Z,7.66
2023-12-15T06:46:01.426Z,7.78
2023-12-15T06:47:00.516Z,7.84
2023-12-15T06:48:00.739Z,7.72
2023-12-15T06:49:00.476Z,7.67
2023-12-15T06:50:00.506Z,7.75
2023-12-15T06:51:00.394Z,7.84
2023-12-15T06:52:00.572Z,7.15
2023-12-15T06:53:00.451Z,7.19
2023-12-15T06:54:00.415Z,7.27
2023-12-15T06:55:00.400Z,7.47
2023-12-15T06:56:00.433Z,7.71
2023-12-15T06:57:00.384Z,7.75
2023-12-15T06:58:00.368Z,7.69
2023-12-15T06:59:00.406Z,7.66
2023-12-15T07:00:00.356Z,7.75
2023-12-15T07:01:00.392Z,7.89
2023-12-15T07:02:00.394Z,7.92
2023-12-15T07:03:00.344Z,8.08
2023-12-15T07:04:00.410Z,7.78
2023-12-15T07:05:00.732Z,7.85
2023-12-15T07:06:00.428Z,7.79
2023-12-15T07:07:00.849Z,7.60
2023-12-15T07:08:00.387Z,7.74
2023-12-15T07:09:00.300Z,7.74
2023-12-15T07:10:00.353Z,7.71
2023-12-15T07:11:00.319Z,7.63
2023-12-15T07:12:00.300Z,7.44
2023-12-15T07:13:00.289Z,7.66
2023-12-15T07:14:00.347Z,7.63
2023-12-15T07:15:00.354Z,7.56
2023-12-15T07:16:02.335Z,7.79
2023-12-15T07:17:01.276Z,7.75
2023-12-15T07:18:00.326Z,7.69
2023-12-15T07:19:00.343Z,7.82
2023-12-15T07:20:00.405Z,7.67
2023-12-15T07:21:00.269Z,7.55
2023-12-15T07:22:00.227Z,7.44
2023-12-15T07:23:00.346Z,7.35
2023-12-15T07:24:00.213Z,7.47
2023-12-15T07:25:00.224Z,7.27
2023-12-15T07:26:00.272Z,7.32
2023-12-15T07:27:00.191Z,7.40
2023-12-15T07:28:00.186Z,7.44
2023-12-15T07:29:00.265Z,7.42
2023-12-15T07:30:00.220Z,7.66
2023-12-15T07:31:00.195Z,7.62
2023-12-15T07:32:00.197Z,7.67
2023-12-15T07:33:00.372Z,7.81
2023-12-15T07:34:00.207Z,7.78
2023-12-15T07:35:00.215Z,7.84
2023-12-15T07:36:00.202Z,7.62
2023-12-15T07:37:00.115Z,7.63
2023-12-15T07:38:00.272Z,7.71
2023-12-15T07:39:00.097Z,7.60
2023-12-15T07:40:00.528Z,7.72
2023-12-15T07:41:00.136Z,7.93
2023-12-15T07:42:00.081Z,7.90
2023-12-15T07:43:00.070Z,7.93
2023-12-15T07:44:00.130Z,7.92
2023-12-15T07:45:00.077Z,7.89
2023-12-15T07:46:00.096Z,7.92
2023-12-15T07:47:00.081Z,7.94
2023-12-15T07:48:00.250Z,8.07
2023-12-15T07:49:00.147Z,8.07
2023-12-15T07:50:00.095Z,7.92
2023-12-15T07:51:00.080Z,8.08
2023-12-15T07:52:00.021Z,8.22
2023-12-15T07:53:00.084Z,8.29
2023-12-15T07:54:01.007Z,8.22
2023-12-15T07:55:00.032Z,8.28
2023-12-15T07:56:00.069Z,8.48
2023-12-15T07:56:59.990Z,8.45
2023-12-15T07:57:59.990Z,8.47
2023-12-15T07:59:00.000Z,8.37
2023-12-15T08:00:00.062Z,8.42
2023-12-15T08:01:00.024Z,8.63
2023-12-15T08:02:00.013Z,8.62
2023-12-15T08:03:00.000Z,8.51
2023-12-15T08:03:59.944Z,8.60
2023-12-15T08:04:59.986Z,8.40
2023-12-15T08:06:00.059Z,8.48
2023-12-15T08:06:59.909Z,8.37
2023-12-15T08:07:59.918Z,8.50
2023-12-15T08:08:59.917Z,8.58
2023-12-15T08:10:00.798Z,8.55
2023-12-15T08:11:02.236Z,8.48
2023-12-15T08:12:00.971Z,8.44
2023-12-15T08:12:59.884Z,8.45
2023-12-15T08:13:59.960Z,8.60
2023-12-15T08:14:59.878Z,8.62
2023-12-15T08:15:59.864Z,8.62
2023-12-15T08:16:59.916Z,8.51
2023-12-15T08:17:59.942Z,8.69
2023-12-15T08:18:59.980Z,8.81
2023-12-15T08:19:59.871Z,8.84
2023-12-15T08:20:59.862Z,8.65
2023-12-15T08:21:59.832Z,8.45
2023-12-15T08:22:59.858Z,8.58
2023-12-15T08:23:59.851Z,8.69
2023-12-15T08:24:59.802Z,8.60
2023-12-15T08:26:33.274Z,8.58
2023-12-15T08:27:33.234Z,8.42
2023-12-15T08:27:59.836Z,8.42
2023-12-15T08:28:59.854Z,8.30
2023-12-15T08:29:59.780Z,8.47
2023-12-15T08:30:59.866Z,8.54
2023-12-15T08:31:59.832Z,8.51
2023-12-15T08:32:59.918Z,8.63
2023-12-15T08:33:59.812Z,8.73
2023-12-15T08:34:59.769Z,8.84
2023-12-15T08:35:59.733Z,8.79
2023-12-15T08:37:33.181Z,8.93
2023-12-15T08:37:59.764Z,8.35
2023-12-15T08:38:59.844Z,8.39
2023-12-15T08:39:59.739Z,8.26
2023-12-15T08:40:59.751Z,8.35
2023-12-15T08:41:59.741Z,8.54
2023-12-15T08:42:59.685Z,8.53
2023-12-15T08:44:00.750Z,8.51
2023-12-15T08:44:59.710Z,8.58
2023-12-15T08:45:59.684Z,8.58
2023-12-15T08:46:59.710Z,8.50
2023-12-15T08:47:59.903Z,8.55
2023-12-15T08:48:59.769Z,8.47
2023-12-15T08:49:59.696Z,8.51
2023-12-15T08:50:59.744Z,8.26
2023-12-15T08:51:59.635Z,7.97
2023-12-15T08:52:59.709Z,8.11
2023-12-15T08:53:59.966Z,8.15
2023-12-15T08:54:59.638Z,8.45
2023-12-15T08:55:59.654Z,8.44
2023-12-15T08:56:59.740Z,8.47
2023-12-15T08:57:59.596Z,8.37
2023-12-15T08:58:59.614Z,8.42
2023-12-15T08:59:59.597Z,8.32
2023-12-15T09:00:59.673Z,8.15
2023-12-15T09:01:59.647Z,8.14
2023-12-15T09:02:59.584Z,8.15
2023-12-15T09:03:59.630Z,8.10
2023-12-15T09:05:03.720Z,8.25
2023-12-15T09:06:23.246Z,8.25
2023-12-15T09:07:00.626Z,8.35
2023-12-15T09:07:59.729Z,8.21
2023-12-15T09:08:59.810Z,8.21
2023-12-15T09:09:59.549Z,8.21
2023-12-15T09:10:59.529Z,8.04
2023-12-15T09:11:59.489Z,8.03
2023-12-15T09:12:59.529Z,8.11
2023-12-15T09:13:59.529Z,8.21
2023-12-15T09:14:59.507Z,8.28
2023-12-15T09:15:59.571Z,8.12
2023-12-15T09:16:59.502Z,8.32
2023-12-15T09:17:59.691Z,8.25
2023-12-15T09:18:59.584Z,8.12
2023-12-15T09:19:59.506Z,8.15
2023-12-15T09:20:59.451Z,8.28
2023-12-15T09:21:59.520Z,8.17
2023-12-15T09:22:59.443Z,8.04
2023-12-15T09:23:59.423Z,8.08
2023-12-15T09:24:59.455Z,8.22
2023-12-15T09:25:59.422Z,8.37
2023-12-15T09:26:59.418Z,8.44
2023-12-15T09:27:59.459Z,8.48
2023-12-15T09:28:59.450Z,8.36
2023-12-15T09:29:59.392Z,8.32
2023-12-15T09:30:59.429Z,8.36
2023-12-15T09:31:59.411Z,8.26
2023-12-15T09:32:59.413Z,8.30
2023-12-15T09:33:59.454Z,8.36
2023-12-15T09:34:59.400Z,8.39
2023-12-15T09:35:59.359Z,8.33
2023-12-15T09:36:59.635Z,8.26
2023-12-15T09:37:59.391Z,8.26
2023-12-15T09:39:01.771Z,8.21
2023-12-15T09:39:59.375Z,8.47
2023-12-15T09:40:59.359Z,8.39
2023-12-15T09:41:59.374Z,8.40
2023-12-15T09:42:59.334Z,8.47
2023-12-15T09:43:59.314Z,8.44
2023-12-15T09:45:06.736Z,8.44
2023-12-15T09:46:01.354Z,8.44
2023-12-15T09:46:59.305Z,8.57
2023-12-15T09:47:59.343Z,8.63
2023-12-15T09:48:59.359Z,8.62
2023-12-15T09:49:59.298Z,8.65
2023-12-15T09:50:59.285Z,8.81
2023-12-15T09:51:59.305Z,8.63
2023-12-15T09:52:59.273Z,8.63
2023-12-15T09:53:59.241Z,8.62
2023-12-15T09:54:59.293Z,8.73
2023-12-15T09:55:59.298Z,8.87
2023-12-15T09:56:59.292Z,8.84
2023-12-15T09:57:59.296Z,8.79
2023-12-15T09:58:59.244Z,9.01
2023-12-15T09:59:59.201Z,9.16
2023-12-15T10:00:59.296Z,9.25
2023-12-15T10:01:59.193Z,9.27
2023-12-15T10:02:59.348Z,9.16
2023-12-15T10:03:59.238Z,9.15
2023-12-15T10:04:59.231Z,9.27
2023-12-15T10:05:59.180Z,9.28
2023-12-15T10:06:59.260Z,8.88
2023-12-15T10:07:59.509Z,9.15
2023-12-15T10:09:02.647Z,9.25
2023-12-15T10:09:59.194Z,9.35
2023-12-15T10:10:59.201Z,9.67
2023-12-15T10:11:59.138Z,9.63
2023-12-15T10:12:59.201Z,9.42
2023-12-15T10:13:59.166Z,9.38
2023-12-15T10:14:59.110Z,9.35
2023-12-15T10:15:59.182Z,9.40
2023-12-15T10:16:59.113Z,8.90
2023-12-15T10:17:59.398Z,9.15
2023-12-15T10:18:59.249Z,9.28
2023-12-15T10:19:59.148Z,9.32
2023-12-15T10:20:59.112Z,9.38
2023-12-15T10:21:59.112Z,9.34
2023-12-15T10:22:59.066Z,9.66
2023-12-15T10:23:59.100Z,9.38
2023-12-15T10:24:59.085Z,9.31
2023-12-15T10:25:59.159Z,9.39
2023-12-15T10:26:59.032Z,9.57
2023-12-15T10:28:01.479Z,9.30
2023-12-15T10:28:59.110Z,9.39
2023-12-15T10:29:59.052Z,9.42
2023-12-15T10:30:59.066Z,9.58
2023-12-15T10:31:59.036Z,9.58
2023-12-15T10:32:59.376Z,9.64
2023-12-15T10:34:01.432Z,9.48
2023-12-15T10:34:58.999Z,9.38
2023-12-15T10:35:59.002Z,9.57
2023-12-15T10:36:59.041Z,9.76
2023-12-15T10:37:58.988Z,9.81
2023-12-15T10:38:58.965Z,9.94
2023-12-15T10:40:02.627Z,10.03
2023-12-15T10:40:59.003Z,9.96
2023-12-15T10:41:58.994Z,9.76
2023-12-15T10:42:58.998Z,9.86
2023-12-15T10:43:58.959Z,9.70
2023-12-15T10:44:58.959Z,9.71
2023-12-15T10:46:00.365Z,9.64
2023-12-15T10:46:58.989Z,9.27
2023-12-15T10:47:59.212Z,9.56
2023-12-15T10:48:59.010Z,9.63
2023-12-15T10:49:59.125Z,9.79
2023-12-15T10:50:58.909Z,10.01
2023-12-15T10:52:00.258Z,10.28
2023-12-15T10:52:58.919Z,10.14
2023-12-15T10:53:58.956Z,9.81
2023-12-15T10:54:58.875Z,9.82
2023-12-15T10:55:58.915Z,9.94
2023-12-15T10:56:58.844Z,10.12
2023-12-15T10:58:01.247Z,10.12
2023-12-15T10:58:58.949Z,10.07
2023-12-15T10:59:58.824Z,9.93
2023-12-15T11:00:59.011Z,9.88
2023-12-15T11:01:59.845Z,10.06
2023-12-15T11:02:58.798Z,10.00
2023-12-15T11:04:00.322Z,10.00
2023-12-15T11:04:58.839Z,10.15
2023-12-15T11:05:58.877Z,10.17
2023-12-15T11:06:58.806Z,10.19
2023-12-15T11:07:58.788Z,10.01
2023-12-15T11:08:58.792Z,9.96
2023-12-15T11:10:01.704Z,10.01
2023-12-15T11:10:58.797Z,9.83
2023-12-15T11:11:58.779Z,9.88
2023-12-15T11:12:58.736Z,9.68
2023-12-15T11:13:58.848Z,9.58
2023-12-15T11:14:58.719Z,9.66
2023-12-15T11:15:58.780Z,9.63
2023-12-15T11:16:58.827Z,9.86
2023-12-15T11:17:59.164Z,9.88
2023-12-15T11:18:58.938Z,10.01
2023-12-15T11:19:58.830Z,9.89
2023-12-15T11:20:58.733Z,9.94
2023-12-15T11:21:58.678Z,9.94
2023-12-15T11:22:58.991Z,9.94
2023-12-15T11:23:58.843Z,10.06
2023-12-15T11:24:58.709Z,10.04
2023-12-15T11:25:58.916Z,10.00
2023-12-15T11:26:58.720Z,9.91
2023-12-15T11:27:58.713Z,9.89
2023-12-15T11:28:58.715Z,9.94
2023-12-15T11:29:58.650Z,10.17
2023-12-15T11:30:58.741Z,10.24
2023-12-15T11:31:59.366Z,10.34
2023-12-15T11:32:58.713Z,10.22
2023-12-15T11:33:58.705Z,10.21
2023-12-15T11:34:58.642Z,10.42
2023-12-15T11:35:58.600Z,10.30
2023-12-15T11:36:58.641Z,10.58
2023-12-15T11:37:58.689Z,10.62
2023-12-15T11:38:58.639Z,10.53
2023-12-15T11:39:58.667Z,10.74
2023-12-15T11:40:58.618Z,10.40
2023-12-15T11:41:58.583Z,10.40
2023-12-15T11:42:58.566Z,10.26
2023-12-15T11:44:01.860Z,10.28
2023-12-15T11:44:59.351Z,10.34
2023-12-15T11:45:58.569Z,10.58
2023-12-15T11:46:58.553Z,10.70
2023-12-15T11:47:58.651Z,10.78
2023-12-15T11:48:58.556Z,10.68
2023-12-15T11:49:58.546Z,10.62
2023-12-15T11:50:58.579Z,10.83
2023-12-15T11:51:58.536Z,10.94
2023-12-15T11:52:58.511Z,10.96
2023-12-15T11:53:58.497Z,11.03
2023-12-15T11:54:58.515Z,11.13
2023-12-15T11:55:58.522Z,11.21
2023-12-15T11:56:58.500Z,10.96
2023-12-15T11:57:58.541Z,10.81
2023-12-15T11:58:58.484Z,10.80
2023-12-15T11:59:58.600Z,10.84
2023-12-15T12:00:58.492Z,11.03
2023-12-15T12:01:58.448Z,10.95
2023-12-15T12:02:59.912Z,10.88
2023-12-15T12:03:58.483Z,10.78
2023-12-15T12:04:58.435Z,10.77
2023-12-15T12:05:58.544Z,10.76
2023-12-15T12:06:58.443Z,10.53
2023-12-15T12:07:58.423Z,10.43
2023-12-15T12:08:58.413Z,10.71
2023-12-15T12:09:58.405Z,10.96
2023-12-15T12:10:58.416Z,10.83
2023-12-15T12:11:58.445Z,10.95
2023-12-15T12:12:58.393Z,10.92
2023-12-15T12:13:58.435Z,10.74
2023-12-15T12:14:58.394Z,10.65
2023-12-15T12:15:58.380Z,10.42
2023-12-15T12:16:58.538Z,10.46
2023-12-15T12:17:58.468Z,10.25
2023-12-15T12:18:58.604Z,10.14
2023-12-15T12:20:00.443Z,10.33
2023-12-15T12:20:58.362Z,10.58
2023-12-15T12:21:58.339Z,10.60
2023-12-15T12:22:58.347Z,10.44
2023-12-15T12:23:58.407Z,10.39
2023-12-15T12:24:58.312Z,10.63
2023-12-15T12:25:58.316Z,10.65
2023-12-15T12:26:58.338Z,10.66
2023-12-15T12:27:58.340Z,10.68
2023-12-15T12:29:01.658Z,10.65
2023-12-15T12:29:58.299Z,10.63
2023-12-15T12:30:58.363Z,10.60
2023-12-15T12:31:58.290Z,10.47
2023-12-15T12:32:58.434Z,10.60
2023-12-15T12:33:58.319Z,10.74
2023-12-15T12:34:58.267Z,10.83
2023-12-15T12:35:58.274Z,10.83
2023-12-15T12:36:58.337Z,10.86
2023-12-15T12:37:58.267Z,10.92
2023-12-15T12:38:58.240Z,10.83
2023-12-15T12:39:58.322Z,10.80
2023-12-15T12:40:58.223Z,10.74
2023-12-15T12:41:58.266Z,10.81
2023-12-15T12:42:59.206Z,10.65
2023-12-15T12:43:58.289Z,10.65
2023-12-15T12:44:58.237Z,10.78
2023-12-15T12:45:58.198Z,10.89
2023-12-15T12:46:58.184Z,10.88
2023-12-15T12:47:58.305Z,10.74
2023-12-15T12:48:58.319Z,10.77
2023-12-15T12:49:58.296Z,10.83
2023-12-15T12:50:58.277Z,10.88
2023-12-15T12:51:58.825Z,10.92
2023-12-15T12:52:58.172Z,10.96
2023-12-15T12:53:58.157Z,11.11
2023-12-15T12:54:58.141Z,11.21
2023-12-15T12:55:58.161Z,11.34
2023-12-15T12:57:00.783Z,11.28
2023-12-15T12:57:59.120Z,11.35
2023-12-15T12:59:00.256Z,11.56
2023-12-15T12:59:59.259Z,11.52
2023-12-15T13:00:58.145Z,11.54
2023-12-15T13:02:07.332Z,11.49
2023-12-15T13:03:00.231Z,11.41
2023-12-15T13:03:58.155Z,11.44
2023-12-15T13:04:59.896Z,11.53
2023-12-15T13:05:58.739Z,11.75
2023-12-15T13:06:58.314Z,11.70
2023-12-15T13:07:58.131Z,11.86
2023-12-15T13:08:58.138Z,11.96
2023-12-15T13:09:58.229Z,11.96
2023-12-15T13:10:58.071Z,12.06
2023-12-15T13:11:58.074Z,12.05
2023-12-15T13:12:58.067Z,12.30
2023-12-15T13:13:58.071Z,12.08